Etusivu
METAR-TAF:

METAR-TAF

Lentoasemat :

McGregor Executive Airport

Waco, Texas, Yhdysvallat

Leveyspiiri: 31-29N, Pituuspiiri: 097-19W, korkeus merenpinnasta: 180 m

Tämänhetkinen sää

Tämä raportti tehtiin 53 minuuttia sitten, kello 19.56 UTC
Tuuli 9 kn kaakosta
Lämpötila 26°C
Kosteus 84%
Ilmanpaine 1009 hPa
Näkyvyys: 16.1 km

METAR: KPWG 231956Z AUTO 13009KT 10SM 26/23 A2981 RMK AO2 WSHFT 1850 LTG DSNT NW-E TSE21RAE14 SLP086 P0013 T02560233

Aika: 15:49 (20:49 UTC)


TAF: puuttuu

Säähavainnot ja -ennusteet yli 4000 lentoasemalta (METAR- ja TAF-raportit).

Käytössä olevat sääasemat on merkitty karttaan keltaisilla ja punaisilla pisteillä.

Aseta hiiri pisteen päälle nähdäksesi sääaseman nimen.

Klikkaa sitten nähdäksesi säähavainnot ja -ennusteet.

Kartan vaihtaminen: klikkaa mustalla rastilla varustettuja vihreitä pisteitä, niin voit zoomata sisään; viivalla varustettua vihreää pistettä, niin voit zoomata ulos tai vihreitä nuolia, niin pääset viereisille kartoille.


METAR-TAF: